createdAt,value
2022-10-19T00:00:51.976Z,102756.13
2022-10-19T00:03:22.432Z,102744.69
2022-10-19T00:05:52.433Z,102747.34
2022-10-19T00:08:20.048Z,102755.44
2022-10-19T00:10:47.765Z,102758.94
2022-10-19T00:13:15.461Z,102758.16
2022-10-19T00:15:43.316Z,102758.16
2022-10-19T00:18:11.009Z,102755.56
2022-10-19T00:20:38.784Z,102753.94
2022-10-19T00:23:07.865Z,102749.59
2022-10-19T00:25:36.948Z,102747.13
2022-10-19T00:28:04.957Z,102737.53
2022-10-19T00:30:32.662Z,102742.03
2022-10-19T00:33:00.286Z,102742.13
2022-10-19T00:35:28.026Z,102741.28
2022-10-19T00:37:55.686Z,102741.31
2022-10-19T00:40:24.869Z,102738.06
2022-10-19T00:42:55.826Z,102738.19
2022-10-19T00:45:23.462Z,102735.72
2022-10-19T00:47:51.654Z,102745.34
2022-10-19T00:50:19.972Z,102747.22
2022-10-19T00:52:47.821Z,102750.88
2022-10-19T00:55:15.554Z,102751.09
2022-10-19T00:57:44.660Z,102749.47
2022-10-19T01:00:12.917Z,102749.50
2022-10-19T01:02:40.594Z,102753.09
2022-10-19T01:05:09.383Z,102749.69
2022-10-19T01:07:37.241Z,102747.19
2022-10-19T01:10:05.865Z,102746.38
2022-10-19T01:12:48.191Z,102730.69
2022-10-19T01:15:23.489Z,102730.69
2022-10-19T01:17:57.495Z,102733.41
2022-10-19T01:21:06.205Z,102734.41
2022-10-19T01:24:11.390Z,102732.94
2022-10-19T01:26:55.241Z,102735.78
2022-10-19T01:29:40.507Z,102738.69
2022-10-19T01:32:11.359Z,102729.06
2022-10-19T01:34:43.598Z,102735.13
2022-10-19T01:37:16.260Z,102715.16
2022-10-19T01:39:49.802Z,102721.91
2022-10-19T01:42:24.851Z,102729.84
2022-10-19T01:44:54.538Z,102725.50
2022-10-19T01:47:27.935Z,102724.03
2022-10-19T01:49:58.270Z,102728.41
2022-10-19T01:52:27.089Z,102726.78
2022-10-19T01:54:57.726Z,102731.38
2022-10-19T01:57:28.131Z,102732.50
2022-10-19T01:59:57.240Z,102730.72
2022-10-19T02:02:27.280Z,102734.50
2022-10-19T02:04:56.361Z,102731.78
2022-10-19T02:07:24.129Z,102730.00
2022-10-19T02:09:51.770Z,102723.06
2022-10-19T02:12:20.027Z,102719.50
2022-10-19T02:14:51.505Z,102719.56
2022-10-19T02:17:21.998Z,102707.75
2022-10-19T02:19:51.007Z,102720.72
2022-10-19T02:22:18.944Z,102717.44
2022-10-19T02:24:46.637Z,102722.00
2022-10-19T02:27:14.473Z,102718.56
2022-10-19T02:29:42.418Z,102706.59
2022-10-19T02:32:11.771Z,102717.88
2022-10-19T02:34:39.964Z,102722.28
2022-10-19T02:37:09.215Z,102716.28
2022-10-19T02:39:36.974Z,102713.00
2022-10-19T02:42:08.861Z,102699.94
2022-10-19T02:44:41.348Z,102699.16
2022-10-19T02:47:11.605Z,102712.00
2022-10-19T02:49:39.946Z,102703.38
2022-10-19T02:52:10.828Z,102699.16
2022-10-19T02:54:39.117Z,102695.59
2022-10-19T02:57:16.031Z,102704.44
2022-10-19T02:59:43.671Z,102701.00
2022-10-19T03:02:11.384Z,102707.44
2022-10-19T03:04:39.339Z,102710.25
2022-10-19T03:07:07.006Z,102700.78
2022-10-19T03:09:36.067Z,102705.25
2022-10-19T03:12:03.902Z,102700.91
2022-10-19T03:14:31.487Z,102710.66
2022-10-19T03:16:59.197Z,102705.44
2022-10-19T03:19:27.005Z,102705.44
2022-10-19T03:21:54.599Z,102703.91
2022-10-19T03:24:22.290Z,102703.13
2022-10-19T03:26:51.320Z,102708.53
2022-10-19T03:29:19.002Z,102707.59
2022-10-19T03:31:46.666Z,102711.97
2022-10-19T03:34:14.358Z,102705.88
2022-10-19T03:36:42.565Z,102699.16
2022-10-19T03:39:13.561Z,102706.03
2022-10-19T03:41:41.655Z,102713.16
2022-10-19T03:44:11.410Z,102709.69
2022-10-19T03:46:39.085Z,102711.56
2022-10-19T03:49:07.385Z,102709.84
2022-10-19T03:51:35.236Z,102718.69
2022-10-19T03:54:04.817Z,102717.00
2022-10-19T03:56:33.118Z,102725.81
2022-10-19T03:59:02.794Z,102716.25
2022-10-19T04:01:33.955Z,102705.84
2022-10-19T04:04:04.131Z,102704.06
2022-10-19T04:06:33.332Z,102713.00
2022-10-19T04:09:01.217Z,102708.66
2022-10-19T04:11:30.686Z,102707.03
2022-10-19T04:13:59.463Z,102701.50
2022-10-19T04:16:29.048Z,102702.44
2022-10-19T04:18:58.693Z,102698.13
2022-10-19T04:21:28.394Z,102701.81
2022-10-19T04:24:02.156Z,102700.91
2022-10-19T04:26:29.865Z,102703.66
2022-10-19T04:28:58.804Z,102696.56
2022-10-19T04:31:26.845Z,102701.81
2022-10-19T04:33:54.696Z,102692.22
2022-10-19T04:36:24.621Z,102692.22
2022-10-19T04:38:52.382Z,102688.91
2022-10-19T04:41:21.542Z,102690.69
2022-10-19T04:43:49.455Z,102683.69
2022-10-19T04:46:18.494Z,102677.56
2022-10-19T04:48:47.182Z,102674.13
2022-10-19T04:51:15.780Z,102675.88
2022-10-19T04:53:45.832Z,102676.72
2022-10-19T04:56:15.777Z,102683.78
2022-10-19T04:58:43.579Z,102670.59
2022-10-19T05:01:12.470Z,102676.84
2022-10-19T05:03:40.378Z,102675.97
2022-10-19T05:06:08.870Z,102670.72
2022-10-19T05:08:37.031Z,102669.84
2022-10-19T05:11:08.003Z,102674.28
2022-10-19T05:13:36.024Z,102669.94
2022-10-19T05:16:05.768Z,102660.72
2022-10-19T05:18:34.231Z,102678.16
2022-10-19T05:21:03.550Z,102665.06
2022-10-19T05:26:03.434Z,102671.19
2022-10-19T05:28:33.291Z,102672.13
2022-10-19T05:31:07.974Z,102664.38
2022-10-19T05:33:35.688Z,102661.88
2022-10-19T05:36:12.279Z,102666.34
2022-10-19T05:38:39.933Z,102657.66
2022-10-19T05:41:07.692Z,102668.31
2022-10-19T05:43:36.761Z,102666.66
2022-10-19T05:46:06.014Z,102672.00
2022-10-19T05:48:34.014Z,102666.78
2022-10-19T05:51:02.355Z,102672.13
2022-10-19T05:53:30.435Z,102673.91
2022-10-19T05:55:58.137Z,102673.91
2022-10-19T05:58:26.119Z,102681.59
2022-10-19T06:00:56.569Z,102681.59
2022-10-19T06:03:24.869Z,102673.84
2022-10-19T06:05:53.098Z,102680.09
2022-10-19T06:08:21.856Z,102680.13
2022-10-19T06:10:50.295Z,102681.91
2022-10-19T06:13:19.657Z,102689.81
2022-10-19T06:15:51.632Z,102691.75
2022-10-19T06:18:25.567Z,102699.56
2022-10-19T06:20:53.852Z,102697.78
2022-10-19T06:23:21.855Z,102709.13
2022-10-19T06:25:49.489Z,102701.22
2022-10-19T06:28:17.126Z,102707.41
2022-10-19T06:30:44.907Z,102707.41
2022-10-19T06:33:12.630Z,102709.88
2022-10-19T06:35:42.994Z,102706.16
2022-10-19T06:38:10.768Z,102705.22
2022-10-19T06:40:38.443Z,102704.22
2022-10-19T06:43:06.103Z,102702.44
2022-10-19T06:45:35.968Z,102703.81
2022-10-19T06:48:06.785Z,102699.31
2022-10-19T06:50:35.506Z,102700.88
2022-10-19T06:53:04.581Z,102699.91
2022-10-19T06:55:32.460Z,102716.44
2022-10-19T06:58:01.888Z,102719.00
2022-10-19T07:00:30.294Z,102718.94
2022-10-19T07:03:00.533Z,102704.03
2022-10-19T07:05:28.176Z,102714.34
2022-10-19T07:07:55.919Z,102711.84
2022-10-19T07:10:25.112Z,102724.72
2022-10-19T07:12:52.782Z,102724.63
2022-10-19T07:15:20.678Z,102716.50
2022-10-19T07:17:48.323Z,102722.53
2022-10-19T07:20:16.050Z,102722.25
2022-10-19T07:22:43.743Z,102731.66
2022-10-19T07:25:11.381Z,102738.47
2022-10-19T07:27:40.722Z,102739.13
2022-10-19T07:30:09.371Z,102739.00
2022-10-19T07:32:37.003Z,102750.16
2022-10-19T07:35:05.224Z,102739.44
2022-10-19T07:37:33.268Z,102729.50
2022-10-19T07:40:01.117Z,102731.94
2022-10-19T07:42:30.413Z,102722.25
2022-10-19T07:44:59.576Z,102741.22
2022-10-19T07:47:27.276Z,102736.63
2022-10-19T07:49:54.999Z,102732.97
2022-10-19T07:52:22.667Z,102728.28
2022-10-19T07:54:50.327Z,102741.19
2022-10-19T07:57:17.992Z,102733.91
2022-10-19T07:59:45.589Z,102729.28
2022-10-19T08:02:16.972Z,102729.94
2022-10-19T08:05:03.105Z,102720.00
2022-10-19T08:07:34.073Z,102717.00
2022-10-19T08:10:01.788Z,102715.00
2022-10-19T08:12:29.562Z,102709.38
2022-10-19T08:14:57.260Z,102710.00
2022-10-19T08:17:26.407Z,102719.19
2022-10-19T08:19:54.085Z,102728.47
2022-10-19T08:22:21.855Z,102714.94
2022-10-19T08:24:49.809Z,102726.94
2022-10-19T08:27:17.545Z,102708.22
2022-10-19T08:29:45.227Z,102712.19
2022-10-19T08:32:12.920Z,102714.44
2022-10-19T08:34:42.077Z,102711.47
2022-10-19T08:37:19.925Z,102711.97
2022-10-19T08:39:57.438Z,102711.66
2022-10-19T08:42:31.152Z,102710.34
2022-10-19T08:45:15.432Z,102704.72
2022-10-19T08:47:56.616Z,102703.75
2022-10-19T08:50:28.039Z,102711.50
2022-10-19T08:53:01.798Z,102705.09
2022-10-19T08:55:37.299Z,102694.38
2022-10-19T08:58:15.819Z,102696.38
2022-10-19T09:00:47.434Z,102694.19
2022-10-19T09:03:37.407Z,102699.94
2022-10-19T09:06:19.884Z,102706.44
2022-10-19T09:08:47.965Z,102693.81
2022-10-19T09:11:16.304Z,102684.59
2022-10-19T09:14:04.151Z,102674.44
2022-10-19T09:16:32.711Z,102685.19
2022-10-19T09:19:00.461Z,102673.22
2022-10-19T09:21:46.046Z,102687.81
2022-10-19T09:24:28.741Z,102682.28
2022-10-19T09:26:58.732Z,102670.81
2022-10-19T09:29:31.067Z,102679.28
2022-10-19T09:32:00.966Z,102673.59
2022-10-19T09:34:31.559Z,102672.44
2022-10-19T09:37:01.000Z,102671.91
2022-10-19T09:39:30.365Z,102679.69
2022-10-19T09:41:59.336Z,102675.84
2022-10-19T09:44:27.943Z,102664.19
2022-10-19T09:47:03.433Z,102670.94
2022-10-19T09:49:41.775Z,102662.53
2022-10-19T09:52:28.971Z,102668.59
2022-10-19T09:55:01.256Z,102662.09
2022-10-19T09:57:28.942Z,102660.00
2022-10-19T09:59:56.728Z,102671.94
2022-10-19T10:02:31.530Z,102669.97
2022-10-19T10:05:06.879Z,102659.75
2022-10-19T10:07:38.166Z,102657.50
2022-10-19T10:10:11.867Z,102653.53
2022-10-19T10:12:41.336Z,102650.41
2022-10-19T10:15:09.809Z,102650.88
2022-10-19T10:17:38.465Z,102645.84
2022-10-19T10:20:19.513Z,102639.09
2022-10-19T10:22:57.114Z,102634.38
2022-10-19T10:25:27.728Z,102637.69
2022-10-19T10:27:58.159Z,102625.09
2022-10-19T10:30:25.966Z,102627.13
2022-10-19T10:32:56.596Z,102628.59
2022-10-19T10:35:29.784Z,102623.06
2022-10-19T10:38:09.066Z,102641.28
2022-10-19T10:40:37.341Z,102637.41
2022-10-19T10:43:08.754Z,102638.72
2022-10-19T10:45:41.102Z,102632.09
2022-10-19T10:48:18.786Z,102633.50
2022-10-19T10:50:46.682Z,102626.47
2022-10-19T10:53:32.463Z,102630.94
2022-10-19T10:56:00.098Z,102620.63
2022-10-19T10:58:36.961Z,102609.22
2022-10-19T11:01:07.853Z,102605.63
2022-10-19T11:03:37.254Z,102594.94
2022-10-19T11:06:05.102Z,102594.81
2022-10-19T11:08:47.925Z,102589.97
2022-10-19T11:11:18.514Z,102582.47
2022-10-19T11:13:50.386Z,102571.91
2022-10-19T11:16:19.748Z,102576.66
2022-10-19T11:18:49.343Z,102567.91
2022-10-19T11:21:19.180Z,102573.56
2022-10-19T11:23:56.000Z,102573.72
2022-10-19T11:26:36.643Z,102570.44
2022-10-19T11:29:20.519Z,102565.69
2022-10-19T11:31:51.030Z,102562.72
2022-10-19T11:34:33.112Z,102535.28
2022-10-19T11:37:04.880Z,102541.47
2022-10-19T11:39:45.023Z,102539.56
2022-10-19T11:42:17.338Z,102540.63
2022-10-19T11:44:52.496Z,102529.69
2022-10-19T11:47:32.037Z,102537.44
2022-10-19T11:50:05.229Z,102530.44
2022-10-19T11:52:38.966Z,102532.66
2022-10-19T11:55:30.248Z,102517.88
2022-10-19T11:58:05.209Z,102526.38
2022-10-19T12:00:39.549Z,102518.63
2022-10-19T12:03:30.948Z,102519.59
2022-10-19T12:06:07.968Z,102517.97
2022-10-19T12:08:46.419Z,102512.53
2022-10-19T12:11:27.490Z,102496.06
2022-10-19T12:13:57.971Z,102505.75
2022-10-19T12:16:30.573Z,102498.84
2022-10-19T12:19:01.434Z,102496.28
2022-10-19T12:21:31.069Z,102495.44
2022-10-19T12:24:00.139Z,102481.31
2022-10-19T12:26:31.762Z,102482.34
2022-10-19T12:29:01.748Z,102468.44
2022-10-19T12:31:29.986Z,102471.19
2022-10-19T12:34:01.965Z,102465.97
2022-10-19T12:36:38.050Z,102453.97
2022-10-19T12:39:13.529Z,102468.72
2022-10-19T12:41:46.589Z,102455.56
2022-10-19T12:44:39.103Z,102450.84
2022-10-19T12:47:11.451Z,102449.16
2022-10-19T12:49:45.962Z,102433.44
2022-10-19T12:52:14.785Z,102429.09
2022-10-19T12:54:43.889Z,102427.91
2022-10-19T12:57:30.400Z,102413.25
2022-10-19T13:00:03.838Z,102415.56
2022-10-19T13:05:07.218Z,102412.59
2022-10-19T13:07:36.663Z,102413.44
2022-10-19T13:10:06.939Z,102396.84
2022-10-19T13:12:47.010Z,102391.44
2022-10-19T13:15:58.127Z,102390.47
2022-10-19T13:19:06.298Z,102382.38
2022-10-19T13:21:51.913Z,102368.13
2022-10-19T13:24:37.921Z,102369.22
2022-10-19T13:27:39.287Z,102365.59
2022-10-19T13:30:47.641Z,102370.66
2022-10-19T13:33:43.040Z,102363.44
2022-10-19T13:36:11.366Z,102356.22
2022-10-19T13:38:40.294Z,102356.09
2022-10-19T13:41:12.528Z,102345.34
2022-10-19T13:43:42.395Z,102343.66
2022-10-19T13:46:14.153Z,102343.41
2022-10-19T13:49:17.568Z,102338.09
2022-10-19T13:51:53.266Z,102334.59
2022-10-19T13:54:31.371Z,102340.16
2022-10-19T13:57:19.322Z,102341.97
2022-10-19T14:00:04.680Z,102340.03
2022-10-19T14:03:08.049Z,102336.84
2022-10-19T14:06:03.960Z,102349.19
2022-10-19T14:08:55.432Z,102332.47
2022-10-19T14:11:26.685Z,102325.16
2022-10-19T14:14:12.325Z,102323.22
2022-10-19T14:16:48.053Z,102318.63
2022-10-19T14:19:25.192Z,102311.19
2022-10-19T14:21:55.405Z,102316.06
2022-10-19T14:24:29.360Z,102308.69
2022-10-19T14:26:57.828Z,102315.50
2022-10-19T14:29:27.749Z,102309.00
2022-10-19T14:31:55.546Z,102308.69
2022-10-19T14:34:23.265Z,102305.91
2022-10-19T14:36:51.199Z,102304.81
2022-10-19T14:39:31.179Z,102298.91
2022-10-19T14:42:01.666Z,102303.25
2022-10-19T14:44:37.607Z,102306.88
2022-10-19T14:47:17.203Z,102303.50
2022-10-19T14:49:45.052Z,102306.56
2022-10-19T14:52:15.435Z,102299.03
2022-10-19T14:54:45.958Z,102291.41
2022-10-19T14:57:16.726Z,102296.81
2022-10-19T14:59:46.408Z,102293.66
2022-10-19T15:02:19.632Z,102295.56
2022-10-19T15:04:47.563Z,102294.22
2022-10-19T15:07:18.801Z,102289.22
2022-10-19T15:09:53.591Z,102296.66
2022-10-19T15:12:24.951Z,102295.19
2022-10-19T15:14:52.746Z,102291.81
2022-10-19T15:17:26.831Z,102290.09
2022-10-19T15:19:55.678Z,102284.03
2022-10-19T15:22:24.706Z,102285.84
2022-10-19T15:24:59.592Z,102282.78
2022-10-19T15:27:32.917Z,102287.34
2022-10-19T15:30:02.530Z,102283.97
2022-10-19T15:32:35.366Z,102276.97
2022-10-19T15:35:12.058Z,102271.84
2022-10-19T15:37:41.059Z,102271.84
2022-10-19T15:40:15.346Z,102274.72
2022-10-19T15:42:44.399Z,102270.59
2022-10-19T15:45:34.649Z,102270.59
2022-10-19T15:48:26.779Z,102280.38
2022-10-19T15:50:55.340Z,102269.13
2022-10-19T15:53:23.714Z,102264.75
2022-10-19T15:55:52.808Z,102269.31
2022-10-19T15:58:21.490Z,102258.91
2022-10-19T16:00:49.248Z,102258.38
2022-10-19T16:03:17.252Z,102255.97
2022-10-19T16:05:45.068Z,102254.25
2022-10-19T16:08:12.746Z,102246.50
2022-10-19T16:10:40.397Z,102247.25
2022-10-19T16:13:09.502Z,102240.22
2022-10-19T16:15:37.377Z,102235.13
2022-10-19T16:18:05.105Z,102243.31
2022-10-19T16:20:32.806Z,102243.41
2022-10-19T16:23:00.446Z,102230.25
2022-10-19T16:25:28.094Z,102228.56
2022-10-19T16:27:55.743Z,102231.22
2022-10-19T16:30:24.809Z,102219.84
2022-10-19T16:32:52.467Z,102225.16
2022-10-19T16:35:20.137Z,102219.00
2022-10-19T16:37:47.781Z,102227.09
2022-10-19T16:40:15.575Z,102216.66
2022-10-19T16:42:43.235Z,102211.56
2022-10-19T16:45:11.953Z,102218.81
2022-10-19T16:47:41.026Z,102204.78
2022-10-19T16:50:09.482Z,102206.03
2022-10-19T16:52:37.663Z,102199.97
2022-10-19T16:55:06.232Z,102192.34
2022-10-19T16:57:33.895Z,102193.19
2022-10-19T17:00:01.577Z,102192.53
2022-10-19T17:02:29.442Z,102197.34
2022-10-19T17:04:58.836Z,102193.91
2022-10-19T17:07:26.546Z,102188.84
2022-10-19T17:09:55.064Z,102177.47
2022-10-19T17:12:22.897Z,102162.09
2022-10-19T17:14:51.256Z,102175.13
2022-10-19T17:17:18.923Z,102180.56
2022-10-19T17:19:46.814Z,102186.94
2022-10-19T17:22:16.292Z,102183.44
2022-10-19T17:24:46.510Z,102175.66
2022-10-19T17:27:14.181Z,102178.44
2022-10-19T17:29:41.837Z,102170.56
2022-10-19T17:32:09.591Z,102168.88
2022-10-19T17:34:37.311Z,102171.00
2022-10-19T17:37:04.985Z,102168.56
2022-10-19T17:39:34.072Z,102157.59
2022-10-19T17:42:03.336Z,102173.00
2022-10-19T17:44:31.975Z,102183.53
2022-10-19T17:47:00.805Z,102181.81
2022-10-19T17:49:29.694Z,102185.41
2022-10-19T17:51:57.362Z,102183.72
2022-10-19T17:54:25.055Z,102173.31
2022-10-19T17:56:54.233Z,102167.16
2022-10-19T17:59:30.270Z,102166.50
2022-10-19T18:02:02.733Z,102171.81
2022-10-19T18:04:30.549Z,102170.13
2022-10-19T18:06:58.248Z,102171.81
2022-10-19T18:09:25.926Z,102171.09
2022-10-19T18:11:54.930Z,102159.31
2022-10-19T18:14:23.791Z,102166.31
2022-10-19T18:16:52.049Z,102174.91
2022-10-19T18:19:19.882Z,102170.88
2022-10-19T18:21:49.111Z,102170.88
2022-10-19T18:24:19.933Z,102159.59
2022-10-19T18:26:48.493Z,102165.00
2022-10-19T18:29:20.396Z,102161.63
2022-10-19T18:31:51.277Z,102156.44
2022-10-19T18:34:20.569Z,102149.31
2022-10-19T18:36:48.981Z,102150.28
2022-10-19T18:39:17.238Z,102152.09
2022-10-19T18:41:44.924Z,102150.34
2022-10-19T18:44:14.135Z,102149.63
2022-10-19T18:46:43.169Z,102151.53
2022-10-19T18:49:12.652Z,102144.09
2022-10-19T18:51:40.759Z,102149.06
2022-10-19T18:54:08.507Z,102133.28
2022-10-19T18:56:37.218Z,102130.00
2022-10-19T18:59:05.013Z,102132.75
2022-10-19T19:01:32.792Z,102127.53
2022-10-19T19:04:07.833Z,102129.44
2022-10-19T19:06:36.278Z,102127.84
2022-10-19T19:09:06.695Z,102114.03
2022-10-19T19:11:36.971Z,102122.56
2022-10-19T19:14:07.113Z,102134.19
2022-10-19T19:16:36.636Z,102122.31
2022-10-19T19:19:06.290Z,102141.41
2022-10-19T19:21:36.477Z,102139.81
2022-10-19T19:24:06.466Z,102123.06
2022-10-19T19:26:38.882Z,102116.25
2022-10-19T19:29:06.510Z,102119.69
2022-10-19T19:31:35.500Z,102116.16
2022-10-19T19:34:09.232Z,102109.16
2022-10-19T19:36:37.147Z,102112.66
2022-10-19T19:39:05.276Z,102099.84
2022-10-19T19:41:34.168Z,102099.84
2022-10-19T19:44:01.918Z,102099.84
2022-10-19T19:46:29.685Z,102084.13
2022-10-19T19:49:01.127Z,102077.84
2022-10-19T19:51:31.615Z,102074.47
2022-10-19T19:53:59.690Z,102067.59
2022-10-19T19:56:28.794Z,102066.75
2022-10-19T19:58:57.781Z,102064.25
2022-10-19T20:01:25.616Z,102063.50
2022-10-19T20:03:53.434Z,102062.78
2022-10-19T20:06:25.023Z,102052.47
2022-10-19T20:08:56.419Z,102054.28
2022-10-19T20:11:25.200Z,102061.38
2022-10-19T20:13:53.220Z,102057.03
2022-10-19T20:16:26.665Z,102076.41
2022-10-19T20:19:00.243Z,102058.81
2022-10-19T20:21:28.259Z,102058.50
2022-10-19T20:23:57.322Z,102059.22
2022-10-19T20:26:26.157Z,102054.16
2022-10-19T20:28:54.152Z,102055.84
2022-10-19T20:31:21.961Z,102054.03
2022-10-19T20:33:50.057Z,102047.22
2022-10-19T20:36:19.326Z,102048.84
2022-10-19T20:38:48.341Z,102040.97
2022-10-19T20:41:18.476Z,102035.69
2022-10-19T20:43:46.178Z,102043.84
2022-10-19T20:46:17.667Z,102019.38
2022-10-19T20:48:45.401Z,102027.41
2022-10-19T20:51:15.286Z,102024.84
2022-10-19T20:53:45.022Z,102024.34
2022-10-19T20:56:14.384Z,102012.78
2022-10-19T20:58:43.925Z,102006.66
2022-10-19T21:01:13.311Z,102005.03
2022-10-19T21:03:41.532Z,102000.91
2022-10-19T21:06:10.144Z,101995.91
2022-10-19T21:08:38.088Z,101997.91
2022-10-19T21:11:13.158Z,101991.22
2022-10-19T21:13:40.788Z,101991.09
2022-10-19T21:16:14.728Z,101993.84
2022-10-19T21:18:42.776Z,101981.56
2022-10-19T21:21:15.114Z,101982.41
2022-10-19T21:23:43.167Z,101977.25
2022-10-19T21:26:10.807Z,101975.63
2022-10-19T21:28:38.598Z,101979.22
2022-10-19T21:31:07.808Z,101969.59
2022-10-19T21:33:37.252Z,101976.47
2022-10-19T21:36:06.834Z,101965.97
2022-10-19T21:38:35.154Z,101966.94
2022-10-19T21:41:05.204Z,101959.09
2022-10-19T21:43:33.050Z,101952.22
2022-10-19T21:46:03.203Z,101958.44
2022-10-19T21:48:31.212Z,101951.44
2022-10-19T21:51:00.328Z,101943.50
2022-10-19T21:53:27.953Z,101929.53
2022-10-19T21:55:55.809Z,101936.84
2022-10-19T21:58:23.541Z,101936.84
2022-10-19T22:00:51.202Z,101940.34
2022-10-19T22:03:19.062Z,101939.50
2022-10-19T22:05:53.039Z,101936.94
2022-10-19T22:08:22.096Z,101928.97
2022-10-19T22:10:49.756Z,101922.00
2022-10-19T22:13:17.703Z,101903.81
2022-10-19T22:15:45.359Z,101908.03
2022-10-19T22:18:13.479Z,101913.22
2022-10-19T22:20:41.789Z,101905.59
2022-10-19T22:23:09.681Z,101907.28
2022-10-19T22:25:38.803Z,101903.13
2022-10-19T22:28:06.482Z,101909.38
2022-10-19T22:30:34.214Z,101905.03
2022-10-19T22:33:01.975Z,101908.66
2022-10-19T22:35:29.700Z,101905.22
2022-10-19T22:37:57.338Z,101895.59
2022-10-19T22:40:24.964Z,101904.59
2022-10-19T22:42:54.019Z,101897.78
2022-10-19T22:45:21.734Z,101897.78
2022-10-19T22:47:49.399Z,101891.66
2022-10-19T22:50:17.087Z,101885.34
2022-10-19T22:52:44.800Z,101882.69
2022-10-19T22:55:12.488Z,101879.19
2022-10-19T22:57:40.203Z,101865.19
2022-10-19T23:00:10.726Z,101878.53
2022-10-19T23:02:38.512Z,101863.72
2022-10-19T23:05:07.031Z,101864.78
2022-10-19T23:07:34.991Z,101857.88
2022-10-19T23:10:02.793Z,101845.50
2022-10-19T23:12:30.449Z,101843.81
2022-10-19T23:14:58.275Z,101853.75
2022-10-19T23:17:27.312Z,101855.63
2022-10-19T23:19:55.256Z,101860.19
2022-10-19T23:22:22.861Z,101859.44
2022-10-19T23:24:50.586Z,101856.91
2022-10-19T23:27:18.315Z,101855.28
2022-10-19T23:29:45.949Z,101850.94
2022-10-19T23:32:13.669Z,101842.06
2022-10-19T23:34:44.607Z,101837.72
2022-10-19T23:37:15.344Z,101834.44
2022-10-19T23:39:43.000Z,101833.59
2022-10-19T23:42:10.608Z,101836.13
2022-10-19T23:44:38.280Z,101820.66
2022-10-19T23:47:05.931Z,101825.56
2022-10-19T23:49:33.564Z,101829.78
2022-10-19T23:52:02.586Z,101819.44
2022-10-19T23:54:30.309Z,101823.03
2022-10-19T23:56:57.958Z,101810.75
2022-10-19T23:59:25.686Z,101793.09
